Jean-Luc Fournier

Olheiro-Chefe - Red Star
24 Out 2027
Domingo
Processo

Personalidade

Adaptabilidade (3) Ambição (8) Controvérsia (8) Lealdade (2) Pressão (13) Profissionalismo (9) Espírito Esportivo (16) Temperamento (17)

Perfil

Estilo de Treinamento Democrático
Licença Continental B
Determinação 6
Gestão de Pessoas 11
Motivação 3
Disciplina 10
Satisfação no Trabalho
100%
Fadiga
0%
Função Olheiro-Chefe
Salário 52.3K p/s
Contrato 14.03.2028

Desempenho

Comportamento Bom
Eficácia do Treinamento
35%
Desenvolvimento do Jogador
45%
Prevenção de Lesões
20%
Implementação Tática
30%

Eventos Recentes

Avaliou um jogador 49d atrás
Avaliou um jogador 49d atrás
Participou de uma reunião de recrutamento 49d atrás
Recomendou um alvo de transferência 49d atrás
Avaliou um jogador 56d atrás
Avaliou um jogador 56d atrás
Avaliou um jogador 56d atrás
Avaliou um jogador 56d atrás

Monitorando agora

166
Jogador Clube Status Habilidade Confiança Observado Última observação Último voto
Pablo Suárez Rentistas Ativo 109 / 99 40% 2 31.08.2027 -
Lucas Rodríguez Uruguay Montevideo Ativo 109 / 92 40% 1 31.08.2027 -
Alpha Touré FC Metz Ativo 118 / 131 40% 1 31.08.2027 -
Iván Ramírez Libertad Ativo 122 / 123 40% 3 30.08.2027 -
Luka Andrade Montevideo City Torque Ativo 106 / 116 40% 1 30.08.2027 -
Noah Streit CF Montreal Ativo 109 / 113 40% 1 30.08.2027 -
William Wendt Stabaek Ativo 105 / 104 40% 1 30.08.2027 -
Ibrahim Sabiu Bendel Insurance Ativo 95 / 100 40% 2 29.08.2027 -
Noah Mawete Kinsiona Waasland-Beveren Ativo 97 / 114 40% 2 29.08.2027 -
Agustín Kahl Racing Ativo 91 / 117 40% 1 28.08.2027 -
Johan Solstad-Nøis Haugesund Ativo 99 / 98 40% 1 28.08.2027 -
Genesis Antwi Chelsea Ativo 105 / 117 40% 1 28.08.2027 -
Great Agbo AS DGSSIE Ativo 68 / 71 40% 2 27.08.2027 -
Algassime Bah Dinamo Tbilisi Ativo 101 / 90 40% 1 27.08.2027 -
Manuel López Defensores Unidos Ativo 113 / 94 40% 5 26.08.2027 -
Darren Yapi Colorado Rapids Ativo 106 / 113 40% 2 26.08.2027 -
Alexander Fesshaie Helsingborg Ativo 99 / 96 40% 1 25.08.2027 -
Frederik Ihler IF Elfsborg Ativo 116 / 122 40% 1 24.08.2027 -
Jere Vrcić Birkirkara Ativo 105 / 96 40% 1 24.08.2027 -
Roald Mitchell New York Red Bulls Ativo 83 / 108 40% 2 23.08.2027 -
Ezekiel Kwame Alladoh Philadelphia Union Ativo 120 / 126 40% 1 23.08.2027 -
Angel Uñates Güemes Ativo 83 / 104 40% 2 22.08.2027 -
Alejandro Piedrahita Deportivo Pereira Ativo 125 / 131 40% 3 22.08.2027 -
Wilfred Correa Caracas Ativo 97 / 104 40% 1 22.08.2027 -
Anthony da Costa Artigas Ativo 68 / 94 40% 1 22.08.2027 -
Jalal Abdullai Molde Ativo 124 / 122 40% 1 21.08.2027 -
Godwin Oham Warri Wolves Ativo 101 / 90 40% 3 19.08.2027 -
Pablo Alcoba Albion Ativo 72 / 87 40% 1 19.08.2027 -
Ibrahim Coulibaly Clermont Foot Ativo 121 / 126 40% 2 18.08.2027 -
Matheus Nascimento Chicago Fire Ativo 119 / 134 40% 4 18.08.2027 -
Félix Noubara AS PSI Ativo 69 / 65 40% 1 18.08.2027 -
Destiny Efosa Egharevba Picerno Ativo 100 / 114 40% 3 17.08.2027 -
Giacomo Sali AlbinoLeffe Ativo 106 / 109 40% 1 17.08.2027 -
Jackson Imbiakha Muranga Seal Ativo 62 / 74 40% 1 17.08.2027 -
Josué Kongolo Racing Genk Ativo 110 / 121 40% 1 17.08.2027 -
Bryan Caicedo Leones Ativo 106 / 91 40% 1 16.08.2027 -
Didier Dawson Envigado Ativo 93 / 99 40% 2 15.08.2027 -
Mateo Lizondo Colón Ativo 85 / 102 40% 1 15.08.2027 -
Nicolás Ferreira Artigas Ativo 66 / 95 40% 2 14.08.2027 -
Diego Betancourth General Diaz Ativo 84 / 98 40% 1 13.08.2027 -
Justin-Noël Kalumba Mallorca Ativo 119 / 128 40% 1 12.08.2027 -
Asanele Shibe Agia Napa Ativo 87 / 89 40% 1 12.08.2027 -
Kenan Busuladžić Halmstad Ativo 109 / 119 40% 1 11.08.2027 -
Matías Núñez Atenas Ativo 90 / 93 40% 1 11.08.2027 -
Tyler Wolff Real Salt Lake Ativo 114 / 117 40% 2 10.08.2027 -
Alan Coria Villarreal Ativo 102 / 120 40% 2 10.08.2027 -
Okardi Inikurogha Bayelsa United Ativo 106 / 91 40% 2 07.08.2027 -
Bariş Kalaycı Fatih Karagumruk Ativo 95 / 116 40% 2 07.08.2027 -
Luis Palacios Tigres Ativo 107 / 120 40% 3 04.08.2027 -
Malick Sylla Ravenna Ativo 82 / 90 40% 1 04.08.2027 -
Sonny Cox Exeter City Ativo 97 / 102 40% 3 01.08.2027 -
Nahuel Albano La Luz Ativo 99 / 99 40% 1 01.08.2027 -
Teo Rodríguez Pagano San Lorenzo Ativo 123 / 128 40% 1 01.08.2027 -
Mihajlo Cvetković Anderlecht Ativo 124 / 129 40% 1 01.08.2027 -
Jack Waldron Cittadella Ativo 76 / 82 40% 1 30.07.2027 -
Jonás Luna Wanderers Ativo 132 / 109 40% 3 28.07.2027 -
Alexandre Duville-Parsemain Moreirense Ativo 117 / 121 40% 1 28.07.2027 -
Archie Goodwin Charlotte Football Club Ativo 109 / 124 40% 2 27.07.2027 -
Santiago Rey Real Santander Ativo 87 / 99 40% 1 27.07.2027 -
Patrick Preciado Deportivo Pasto Ativo 110 / 107 40% 1 26.07.2027 -
Isa Sakamoto Westerlo Ativo 116 / 120 40% 9 25.07.2027 -
Nahuel Gelos Miramar Misiones Ativo 100 / 107 40% 1 24.07.2027 -
Nathan Doualla Canon Yaounde Ativo 88 / 88 40% 1 24.07.2027 -
Diogo Guzmán Montevideo City Torque Ativo 109 / 127 40% 1 24.07.2027 -
Sixtus Ogbuehi KV Kortrijk Ativo 100 / 108 40% 3 21.07.2027 -
Halil Özdemir KV Mechelen Ativo 112 / 115 40% 1 21.07.2027 -
Lautaro Millán Independiente Ativo 132 / 119 40% 1 21.07.2027 -
Yassine Khalifi Charleroi Ativo 103 / 112 40% 2 20.07.2027 -
Mats Egbring Heerenveen Ativo 106 / 105 40% 3 20.07.2027 -
Nazareno Roselli Defensa y Justicia Ativo 110 / 112 40% 2 19.07.2027 -
Mathys Angély VfL Wolfsburg Ativo 104 / 127 40% 1 19.07.2027 -
Chinedu Onyinjekwu Bayelsa United Ativo 98 / 91 40% 2 18.07.2027 -
Borna Knezović Casarano Ativo 102 / 120 40% 4 17.07.2027 -
Shaq Forde Bristol Rovers Ativo 95 / 108 40% 1 17.07.2027 -
Ardit Tahiri Kolos Ativo 117 / 115 40% 2 16.07.2027 -
Martim Cunha Porto Ativo 97 / 117 40% 1 16.07.2027 -
Jorge Meireles AVS Ativo 105 / 108 40% 5 15.07.2027 -
Dmitry Zheltukhin Rodina M Ativo 68 / 70 40% 1 15.07.2027 -
Bogdan Petrović TSC Ativo 112 / 107 40% 3 12.07.2027 -
Ünal Durmuşhan Hatayspor Ativo 102 / 86 40% 1 12.07.2027 -
Berna CSKA 1948 Ativo 111 / 111 40% 1 11.07.2027 -
Sipho Ngqakabana AS Police Ativo 72 / 88 40% 1 11.07.2027 -
Alexis Vossah Toulouse FC Ativo 123 / 138 40% 1 11.07.2027 -
Pedro Borges Exeter City Ativo 81 / 91 40% 2 10.07.2027 -
Marco Oroná Antofagasta Ativo 87 / 105 40% 1 10.07.2027 -
Vasyl Bundash Metalurh Zaporizhzhia Ativo 101 / 95 40% 1 09.07.2027 -
Hilmir Rafn Mikaelsson Sigma Olomouc Ativo 131 / 109 40% 1 07.07.2027 -
Carlos Paraco Metalist Ativo 123 / 127 40% 4 06.07.2027 -
Surkhaikhan Abdullaev KAMAZ Ativo 79 / 102 40% 1 06.07.2027 -
Juho Lähteenmäki FC Nordsjaelland Ativo 136 / 112 40% 1 06.07.2027 -
Aleksej Golijanin Sokol Ativo 81 / 103 40% 2 04.07.2027 -
Elie N'Gatta Sochaux Ativo 94 / 99 40% 1 04.07.2027 -
Juan David Obando Dinamo Barnaul Ativo 87 / 97 40% 1 04.07.2027 -
Mathis Amougou RC Strasbourg Ativo 123 / 123 40% 2 03.07.2027 -
Lukáš Mašek Slovan Liberec Ativo 109 / 108 40% 2 03.07.2027 -
Renzo Machado Liverpool Montevideo Ativo 122 / 104 40% 1 29.06.2027 -
Lorenzo De Leo Renate Ativo 106 / 113 40% 2 25.06.2027 -
Khaled Al-Nabris Ismaily Ativo 112 / 113 40% 2 24.06.2027 -
Calum Kavanagh Oldham Athletic Ativo 93 / 92 40% 1 24.06.2027 -
Shandre Campbell KV Kortrijk Ativo 116 / 118 40% 3 23.06.2027 -
Yaroslav Karabin Karpaty Ativo 122 / 98 40% 1 23.06.2027 -
Mfundo Vilakazi Kaizer Chiefs Ativo 129 / 132 40% 1 23.06.2027 -
Hlompho Billiat Free State Stars Ativo 76 / 83 40% 1 22.06.2027 -
Joseph Jones Kryvbas Ativo 88 / 85 40% 1 21.06.2027 -
Pele Smith Fleetwood Town Ativo 74 / 75 40% 1 21.06.2027 -
Thomas De Ketelaere Mouscron Ativo 90 / 95 40% 1 19.06.2027 -
Samson Tovide Colchester United Ativo 98 / 100 40% 3 18.06.2027 -
Radek Šiler Podbrezova Ativo 96 / 117 40% 2 17.06.2027 -
Jan Bürger Preston Ativo 117 / 114 40% 1 17.06.2027 -
Daou Diomandé Valenciennes Ativo 89 / 110 40% 1 16.06.2027 -
Youssuf Sylla Jagiellonia Ativo 119 / 110 40% 1 16.06.2027 -
Nikolay Zlatev Cherno More Ativo 89 / 104 40% 2 14.06.2027 -
Danylo Honcharuk Probiy Ativo 95 / 78 40% 2 14.06.2027 -
Benjamin Merba Foullah Edifice Ativo 73 / 64 40% 1 14.06.2027 -
Denis Mironov Shinnik Ativo 78 / 80 40% 1 13.06.2027 -
Molemo Seemela Zvezda Ativo 83 / 82 40% 1 11.06.2027 -
Migran Ageyan Ufa Ativo 98 / 105 40% 1 08.06.2027 -
Alessandro Bolzan Sorrento Ativo 95 / 91 40% 1 08.06.2027 -
Matías Lozano Atletico Nacional Ativo 112 / 127 40% 1 07.06.2027 -
Noah Adedeji-Sternberg Racing Genk Ativo 115 / 125 40% 2 06.06.2027 -
Mattia Della Rocca Pontedera Ativo 81 / 105 40% 1 06.06.2027 -
Lazar Mijović Cukaricki Ativo 99 / 122 40% 1 04.06.2027 -
José Bica Leixões Ativo 106 / 102 40% 1 03.06.2027 -
Khayon Edwards Estoril Praia Ativo 110 / 103 40% 1 01.06.2027 -
Lander Astiazarán Real Sociedad Ativo 95 / 121 40% 1 01.06.2027 -
Jerome Karelse Golden Arrows Ativo 104 / 96 40% 1 31.01.2027 -
Bradley Fink Wycombe Wanderers Ativo 119 / 114 40% 2 29.01.2027 -
Jason Kompany KV Oostende Ativo 139 / 132 40% 2 28.01.2027 -
Andrija Bulatović RC Lens Ativo 126 / 122 40% 1 28.01.2027 -
Juan Rodríguez Cagliari Ativo 122 / 116 40% 1 27.01.2027 -
James Dornelly Peterborough United Ativo 93 / 100 40% 1 27.01.2027 -
Dylan Nandín Arouca Ativo 113 / 118 40% 1 25.01.2027 -
Maximiliano Caufriez KV Oostende Ativo 116 / 132 40% 1 22.01.2027 -
Fawaaz Basadien Mamelodi Sundowns Ativo 130 / 102 40% 1 21.01.2027 -
Jean-Baptiste Roger Tours Ativo 134 / 113 40% 1 21.01.2027 -
Alan Mozo Pachuca Ativo 130 / 113 40% 2 20.01.2027 -
Marius Courcoul Olympique de Marseille Ativo 108 / 128 40% 1 20.01.2027 -
Santiago Simón Toluca Ativo 133 / 120 40% 1 18.01.2027 -
Mandla Mothiba Free State Stars Ativo 99 / 110 40% 1 16.01.2027 -
Enis Destan Konyaspor Ativo 124 / 118 40% 1 13.01.2027 -
Keano Vanrafelghem KV Mechelen Ativo 113 / 106 40% 1 10.01.2027 -
Ryotaro Araki Sint-Truiden Ativo 108 / 111 40% 2 09.01.2027 -
Tobías Cervera SonderjyskE Ativo 128 / 121 40% 1 07.01.2027 -
Mees Rijks Bristol Rovers Ativo 103 / 106 40% 3 06.01.2027 -
Rajmund Molnár Pogon Ativo 119 / 105 40% 1 04.01.2027 -
Kelvin John Aalborg Ativo 109 / 94 40% 1 01.01.2027 -
Matheus Alves CSKA Moscow Ativo 130 / 125 40% 1 30.08.2026 -
Genaro Rossi San Martín SJ Ativo 119 / 100 40% 1 29.08.2026 -
Agustín Venezia Iquique Ativo 117 / 110 40% 3 27.08.2026 -
Victor Ferraresi Llaneros Ativo 103 / 104 40% 1 27.08.2026 -
José Pachuca Puebla Ativo 92 / 106 40% 1 26.08.2026 -
Francisco Bonfiglio Boston River Ativo 94 / 101 40% 1 24.08.2026 -
Jeong Sang-Bin St. Louis CITY SC Ativo 99 / 131 40% 1 24.08.2026 -
Julián Vignolo Toulouse FC Ativo 108 / 123 40% 1 19.08.2026 -
Myron van Brederode KV Mechelen Ativo 115 / 123 40% 2 17.08.2026 -
Zion Henry Racing Genk Ativo 73 / 78 40% 1 17.08.2026 -
Sacha Farruggia Charleroi Ativo 71 / 72 40% 1 17.08.2026 -
Louis Albert Cissé RC Strasbourg Ativo 81 / 89 62% 1 10.08.2026 Aprovar
Esteban Obregón Montevideo City Torque Ativo 119 / 125 40% 1 09.08.2026 -
Mateo Mendoza Godoy Cruz Ativo 109 / 120 40% 1 08.08.2026 -
Ilay Feingold New England Revolution Ativo 113 / 123 40% 1 08.08.2026 -
Rayan Fofana RC Lens Ativo 119 / 125 40% 2 07.08.2026 -
Malik Mothersille Stockport County Ativo 107 / 107 40% 1 06.08.2026 -
Moussa Diallo Stade Malien Ativo 80 / 106 40% 1 04.08.2026 -
Samed Baždar Sint-Truiden Ativo 127 / 115 40% 1 02.08.2026 -
Idan Toklomati Charlotte Football Club Ativo 110 / 127 40% 1 02.08.2026 -